sensor_id;sensor_type;location;lat;lon;timestamp;P1;durP1;ratioP1;P2;durP2;ratioP2
20170;SDS011;10245;51.344;6.620;2023-04-09T00:01:32;38.42;;;26.70;;
20170;SDS011;10245;51.344;6.620;2023-04-09T00:03:56;42.97;;;27.13;;
20170;SDS011;10245;51.344;6.620;2023-04-09T00:06:19;40.00;;;27.08;;
20170;SDS011;10245;51.344;6.620;2023-04-09T00:08:44;38.15;;;27.27;;
20170;SDS011;10245;51.344;6.620;2023-04-09T00:11:07;40.45;;;28.55;;
20170;SDS011;10245;51.344;6.620;2023-04-09T00:13:31;46.25;;;28.77;;
20170;SDS011;10245;51.344;6.620;2023-04-09T00:16:00;44.58;;;28.60;;
20170;SDS011;10245;51.344;6.620;2023-04-09T00:18:23;42.92;;;28.90;;
20170;SDS011;10245;51.344;6.620;2023-04-09T00:20:46;41.20;;;27.85;;
20170;SDS011;10245;51.344;6.620;2023-04-09T00:23:09;42.13;;;28.35;;
20170;SDS011;10245;51.344;6.620;2023-04-09T00:25:34;43.22;;;28.63;;
20170;SDS011;10245;51.344;6.620;2023-04-09T00:27:58;38.55;;;27.23;;
20170;SDS011;10245;51.344;6.620;2023-04-09T00:30:21;44.90;;;28.33;;
20170;SDS011;10245;51.344;6.620;2023-04-09T00:32:45;40.45;;;28.08;;
20170;SDS011;10245;51.344;6.620;2023-04-09T00:35:08;41.85;;;27.80;;
20170;SDS011;10245;51.344;6.620;2023-04-09T00:37:31;41.42;;;28.13;;
20170;SDS011;10245;51.344;6.620;2023-04-09T00:39:55;43.38;;;28.95;;
20170;SDS011;10245;51.344;6.620;2023-04-09T00:42:20;47.50;;;30.45;;
20170;SDS011;10245;51.344;6.620;2023-04-09T00:44:43;44.10;;;29.35;;
20170;SDS011;10245;51.344;6.620;2023-04-09T00:47:07;41.88;;;29.50;;
20170;SDS011;10245;51.344;6.620;2023-04-09T00:49:30;43.20;;;29.00;;
20170;SDS011;10245;51.344;6.620;2023-04-09T00:51:54;47.08;;;29.27;;
20170;SDS011;10245;51.344;6.620;2023-04-09T00:54:18;43.88;;;27.95;;
20170;SDS011;10245;51.344;6.620;2023-04-09T00:56:42;44.97;;;29.23;;
20170;SDS011;10245;51.344;6.620;2023-04-09T00:59:07;42.78;;;28.45;;
20170;SDS011;10245;51.344;6.620;2023-04-09T01:01:31;43.40;;;29.42;;
20170;SDS011;10245;51.344;6.620;2023-04-09T01:03:55;42.85;;;27.48;;
20170;SDS011;10245;51.344;6.620;2023-04-09T01:06:20;41.65;;;28.00;;
20170;SDS011;10245;51.344;6.620;2023-04-09T01:08:50;45.35;;;29.13;;
20170;SDS011;10245;51.344;6.620;2023-04-09T01:11:24;43.47;;;28.58;;
20170;SDS011;10245;51.344;6.620;2023-04-09T01:13:57;43.33;;;27.58;;
20170;SDS011;10245;51.344;6.620;2023-04-09T01:16:31;41.95;;;26.45;;
20170;SDS011;10245;51.344;6.620;2023-04-09T01:19:00;45.58;;;29.27;;
20170;SDS011;10245;51.344;6.620;2023-04-09T01:21:32;44.60;;;28.50;;
20170;SDS011;10245;51.344;6.620;2023-04-09T01:23:58;41.15;;;27.85;;
20170;SDS011;10245;51.344;6.620;2023-04-09T01:26:43;37.53;;;25.40;;
20170;SDS011;10245;51.344;6.620;2023-04-09T01:29:22;41.13;;;25.77;;
20170;SDS011;10245;51.344;6.620;2023-04-09T01:31:47;43.15;;;28.20;;
20170;SDS011;10245;51.344;6.620;2023-04-09T01:34:11;42.03;;;27.45;;
20170;SDS011;10245;51.344;6.620;2023-04-09T01:36:36;45.65;;;29.33;;
20170;SDS011;10245;51.344;6.620;2023-04-09T01:39:01;42.30;;;26.88;;
20170;SDS011;10245;51.344;6.620;2023-04-09T01:41:25;42.90;;;27.45;;
20170;SDS011;10245;51.344;6.620;2023-04-09T01:43:49;39.78;;;26.98;;
20170;SDS011;10245;51.344;6.620;2023-04-09T01:46:15;39.72;;;27.20;;
20170;SDS011;10245;51.344;6.620;2023-04-09T01:48:40;43.15;;;27.48;;
20170;SDS011;10245;51.344;6.620;2023-04-09T01:51:05;41.17;;;26.35;;
20170;SDS011;10245;51.344;6.620;2023-04-09T01:53:28;38.65;;;25.73;;
20170;SDS011;10245;51.344;6.620;2023-04-09T01:55:51;43.13;;;26.40;;
20170;SDS011;10245;51.344;6.620;2023-04-09T01:58:15;42.25;;;26.92;;
20170;SDS011;10245;51.344;6.620;2023-04-09T02:00:39;43.30;;;27.88;;
20170;SDS011;10245;51.344;6.620;2023-04-09T02:03:12;41.65;;;27.05;;
20170;SDS011;10245;51.344;6.620;2023-04-09T02:05:41;41.50;;;27.00;;
20170;SDS011;10245;51.344;6.620;2023-04-09T02:08:11;37.22;;;25.05;;
20170;SDS011;10245;51.344;6.620;2023-04-09T02:10:39;40.88;;;26.95;;
20170;SDS011;10245;51.344;6.620;2023-04-09T02:13:07;42.70;;;26.90;;
20170;SDS011;10245;51.344;6.620;2023-04-09T02:15:35;41.70;;;25.27;;
20170;SDS011;10245;51.344;6.620;2023-04-09T02:18:00;47.25;;;27.83;;
20170;SDS011;10245;51.344;6.620;2023-04-09T02:20:25;43.67;;;27.60;;
20170;SDS011;10245;51.344;6.620;2023-04-09T02:22:50;44.63;;;28.60;;
20170;SDS011;10245;51.344;6.620;2023-04-09T02:25:13;50.47;;;31.00;;
20170;SDS011;10245;51.344;6.620;2023-04-09T02:27:37;44.80;;;28.70;;
20170;SDS011;10245;51.344;6.620;2023-04-09T02:30:00;42.20;;;27.67;;
20170;SDS011;10245;51.344;6.620;2023-04-09T02:32:24;43.08;;;28.30;;
20170;SDS011;10245;51.344;6.620;2023-04-09T02:34:47;48.00;;;29.67;;
20170;SDS011;10245;51.344;6.620;2023-04-09T02:37:12;51.33;;;30.73;;
20170;SDS011;10245;51.344;6.620;2023-04-09T02:39:35;45.17;;;28.45;;
20170;SDS011;10245;51.344;6.620;2023-04-09T02:41:59;45.08;;;29.23;;
20170;SDS011;10245;51.344;6.620;2023-04-09T02:44:22;44.60;;;28.08;;
20170;SDS011;10245;51.344;6.620;2023-04-09T02:46:46;42.42;;;27.05;;
20170;SDS011;10245;51.344;6.620;2023-04-09T02:49:12;41.80;;;26.77;;
20170;SDS011;10245;51.344;6.620;2023-04-09T02:51:36;44.97;;;27.60;;
20170;SDS011;10245;51.344;6.620;2023-04-09T02:54:00;41.40;;;27.75;;
20170;SDS011;10245;51.344;6.620;2023-04-09T02:56:24;46.60;;;29.05;;
20170;SDS011;10245;51.344;6.620;2023-04-09T02:58:47;45.30;;;29.15;;
20170;SDS011;10245;51.344;6.620;2023-04-09T03:01:14;45.55;;;29.00;;
20170;SDS011;10245;51.344;6.620;2023-04-09T03:03:38;45.63;;;29.25;;
20170;SDS011;10245;51.344;6.620;2023-04-09T03:06:02;49.05;;;29.48;;
20170;SDS011;10245;51.344;6.620;2023-04-09T03:08:26;49.92;;;31.27;;
20170;SDS011;10245;51.344;6.620;2023-04-09T03:10:50;48.13;;;30.35;;
20170;SDS011;10245;51.344;6.620;2023-04-09T03:13:14;49.00;;;29.75;;
20170;SDS011;10245;51.344;6.620;2023-04-09T03:15:38;48.10;;;30.80;;
20170;SDS011;10245;51.344;6.620;2023-04-09T03:18:01;46.33;;;29.52;;
20170;SDS011;10245;51.344;6.620;2023-04-09T03:20:25;45.00;;;30.65;;
20170;SDS011;10245;51.344;6.620;2023-04-09T03:22:49;50.95;;;32.78;;
20170;SDS011;10245;51.344;6.620;2023-04-09T03:25:23;48.08;;;30.60;;
20170;SDS011;10245;51.344;6.620;2023-04-09T03:27:49;51.60;;;31.27;;
20170;SDS011;10245;51.344;6.620;2023-04-09T03:30:21;48.72;;;31.35;;
20170;SDS011;10245;51.344;6.620;2023-04-09T03:32:45;44.60;;;30.52;;
20170;SDS011;10245;51.344;6.620;2023-04-09T03:35:08;50.08;;;32.05;;
20170;SDS011;10245;51.344;6.620;2023-04-09T03:37:33;51.60;;;32.40;;
20170;SDS011;10245;51.344;6.620;2023-04-09T03:39:58;51.00;;;32.47;;
20170;SDS011;10245;51.344;6.620;2023-04-09T03:42:23;52.25;;;33.33;;
20170;SDS011;10245;51.344;6.620;2023-04-09T03:44:48;47.03;;;30.70;;
20170;SDS011;10245;51.344;6.620;2023-04-09T03:47:32;48.80;;;30.83;;
20170;SDS011;10245;51.344;6.620;2023-04-09T03:49:56;53.50;;;31.83;;
20170;SDS011;10245;51.344;6.620;2023-04-09T03:52:24;49.10;;;30.33;;
20170;SDS011;10245;51.344;6.620;2023-04-09T03:54:58;47.30;;;30.33;;
20170;SDS011;10245;51.344;6.620;2023-04-09T03:57:22;43.55;;;28.95;;
20170;SDS011;10245;51.344;6.620;2023-04-09T03:59:48;51.35;;;32.72;;
20170;SDS011;10245;51.344;6.620;2023-04-09T04:02:14;51.10;;;31.90;;
20170;SDS011;10245;51.344;6.620;2023-04-09T04:04:42;45.67;;;29.02;;
20170;SDS011;10245;51.344;6.620;2023-04-09T04:07:05;46.42;;;28.83;;
20170;SDS011;10245;51.344;6.620;2023-04-09T04:09:33;45.20;;;29.00;;
20170;SDS011;10245;51.344;6.620;2023-04-09T04:12:02;43.42;;;27.30;;
20170;SDS011;10245;51.344;6.620;2023-04-09T04:14:50;42.58;;;27.88;;
20170;SDS011;10245;51.344;6.620;2023-04-09T04:17:20;41.85;;;26.05;;
20170;SDS011;10245;51.344;6.620;2023-04-09T04:19:45;42.75;;;28.42;;
20170;SDS011;10245;51.344;6.620;2023-04-09T04:22:08;49.65;;;30.65;;
20170;SDS011;10245;51.344;6.620;2023-04-09T04:24:35;49.03;;;28.45;;
20170;SDS011;10245;51.344;6.620;2023-04-09T04:26:59;51.97;;;29.83;;
20170;SDS011;10245;51.344;6.620;2023-04-09T04:29:27;42.22;;;26.67;;
20170;SDS011;10245;51.344;6.620;2023-04-09T04:31:54;41.60;;;28.45;;
20170;SDS011;10245;51.344;6.620;2023-04-09T04:34:21;46.03;;;28.50;;
20170;SDS011;10245;51.344;6.620;2023-04-09T04:36:53;46.40;;;29.17;;
20170;SDS011;10245;51.344;6.620;2023-04-09T04:39:16;45.20;;;28.85;;
20170;SDS011;10245;51.344;6.620;2023-04-09T04:41:48;41.20;;;27.23;;
20170;SDS011;10245;51.344;6.620;2023-04-09T04:44:16;40.97;;;26.77;;
20170;SDS011;10245;51.344;6.620;2023-04-09T04:46:40;43.72;;;28.10;;
20170;SDS011;10245;51.344;6.620;2023-04-09T04:49:05;43.20;;;26.67;;
20170;SDS011;10245;51.344;6.620;2023-04-09T04:51:36;39.50;;;26.73;;
20170;SDS011;10245;51.344;6.620;2023-04-09T04:54:02;40.50;;;25.88;;
20170;SDS011;10245;51.344;6.620;2023-04-09T04:56:26;40.85;;;24.88;;
20170;SDS011;10245;51.344;6.620;2023-04-09T04:58:56;42.30;;;27.20;;
20170;SDS011;10245;51.344;6.620;2023-04-09T05:01:19;38.00;;;25.88;;
20170;SDS011;10245;51.344;6.620;2023-04-09T05:03:43;39.60;;;25.80;;
20170;SDS011;10245;51.344;6.620;2023-04-09T05:06:26;42.03;;;27.27;;
20170;SDS011;10245;51.344;6.620;2023-04-09T05:08:51;41.22;;;26.33;;
20170;SDS011;10245;51.344;6.620;2023-04-09T05:11:20;45.08;;;29.35;;
20170;SDS011;10245;51.344;6.620;2023-04-09T05:13:44;43.38;;;27.55;;
20170;SDS011;10245;51.344;6.620;2023-04-09T05:16:14;43.78;;;27.90;;
20170;SDS011;10245;51.344;6.620;2023-04-09T05:18:43;45.28;;;27.80;;
20170;SDS011;10245;51.344;6.620;2023-04-09T05:21:06;42.67;;;27.10;;
20170;SDS011;10245;51.344;6.620;2023-04-09T05:23:31;41.13;;;25.92;;
20170;SDS011;10245;51.344;6.620;2023-04-09T05:25:54;44.28;;;27.83;;
20170;SDS011;10245;51.344;6.620;2023-04-09T05:28:27;44.70;;;27.42;;
20170;SDS011;10245;51.344;6.620;2023-04-09T05:31:00;45.17;;;29.33;;
20170;SDS011;10245;51.344;6.620;2023-04-09T05:33:25;44.63;;;29.13;;
20170;SDS011;10245;51.344;6.620;2023-04-09T05:35:49;44.03;;;28.92;;
20170;SDS011;10245;51.344;6.620;2023-04-09T05:38:12;47.97;;;30.13;;
20170;SDS011;10245;51.344;6.620;2023-04-09T05:40:39;49.75;;;30.70;;
20170;SDS011;10245;51.344;6.620;2023-04-09T05:43:06;50.55;;;31.52;;
20170;SDS011;10245;51.344;6.620;2023-04-09T05:45:36;53.20;;;31.80;;
20170;SDS011;10245;51.344;6.620;2023-04-09T05:47:59;52.42;;;31.25;;
20170;SDS011;10245;51.344;6.620;2023-04-09T05:50:23;48.60;;;31.05;;
20170;SDS011;10245;51.344;6.620;2023-04-09T05:52:48;53.58;;;31.77;;
20170;SDS011;10245;51.344;6.620;2023-04-09T05:55:13;55.47;;;32.83;;
20170;SDS011;10245;51.344;6.620;2023-04-09T05:57:42;50.17;;;32.25;;
20170;SDS011;10245;51.344;6.620;2023-04-09T06:00:06;46.45;;;30.70;;
20170;SDS011;10245;51.344;6.620;2023-04-09T06:02:37;48.38;;;30.90;;
20170;SDS011;10245;51.344;6.620;2023-04-09T06:05:01;52.75;;;33.95;;
20170;SDS011;10245;51.344;6.620;2023-04-09T06:07:24;49.53;;;32.20;;
20170;SDS011;10245;51.344;6.620;2023-04-09T06:09:47;52.90;;;32.80;;
20170;SDS011;10245;51.344;6.620;2023-04-09T06:12:11;49.22;;;31.20;;
20170;SDS011;10245;51.344;6.620;2023-04-09T06:14:36;52.67;;;32.05;;
20170;SDS011;10245;51.344;6.620;2023-04-09T06:16:59;47.30;;;30.63;;
20170;SDS011;10245;51.344;6.620;2023-04-09T06:19:23;44.08;;;29.50;;
20170;SDS011;10245;51.344;6.620;2023-04-09T06:21:47;45.05;;;29.92;;
20170;SDS011;10245;51.344;6.620;2023-04-09T06:24:10;49.28;;;31.65;;
20170;SDS011;10245;51.344;6.620;2023-04-09T06:26:34;49.22;;;32.10;;
20170;SDS011;10245;51.344;6.620;2023-04-09T06:28:57;48.58;;;30.63;;
20170;SDS011;10245;51.344;6.620;2023-04-09T06:31:22;48.38;;;31.05;;
20170;SDS011;10245;51.344;6.620;2023-04-09T06:33:46;47.13;;;30.42;;
20170;SDS011;10245;51.344;6.620;2023-04-09T06:36:09;51.17;;;31.83;;
20170;SDS011;10245;51.344;6.620;2023-04-09T06:38:32;51.35;;;32.90;;
20170;SDS011;10245;51.344;6.620;2023-04-09T06:40:55;47.28;;;29.25;;
20170;SDS011;10245;51.344;6.620;2023-04-09T06:43:19;46.28;;;29.83;;
20170;SDS011;10245;51.344;6.620;2023-04-09T06:45:44;42.38;;;28.95;;
20170;SDS011;10245;51.344;6.620;2023-04-09T06:48:09;44.33;;;27.85;;
20170;SDS011;10245;51.344;6.620;2023-04-09T06:50:33;42.78;;;27.33;;
20170;SDS011;10245;51.344;6.620;2023-04-09T06:52:56;42.90;;;26.80;;
20170;SDS011;10245;51.344;6.620;2023-04-09T06:55:20;37.70;;;25.98;;
20170;SDS011;10245;51.344;6.620;2023-04-09T06:57:45;38.60;;;25.30;;
20170;SDS011;10245;51.344;6.620;2023-04-09T07:00:08;34.92;;;24.13;;
20170;SDS011;10245;51.344;6.620;2023-04-09T07:02:33;37.38;;;25.33;;
20170;SDS011;10245;51.344;6.620;2023-04-09T07:04:58;37.08;;;23.73;;
20170;SDS011;10245;51.344;6.620;2023-04-09T07:07:22;37.55;;;25.98;;
20170;SDS011;10245;51.344;6.620;2023-04-09T07:09:46;37.80;;;24.73;;
20170;SDS011;10245;51.344;6.620;2023-04-09T07:12:09;35.08;;;22.75;;
20170;SDS011;10245;51.344;6.620;2023-04-09T07:14:33;29.10;;;20.92;;
20170;SDS011;10245;51.344;6.620;2023-04-09T07:16:56;32.58;;;21.33;;
20170;SDS011;10245;51.344;6.620;2023-04-09T07:19:20;31.95;;;21.35;;
20170;SDS011;10245;51.344;6.620;2023-04-09T07:21:44;27.42;;;20.35;;
20170;SDS011;10245;51.344;6.620;2023-04-09T07:24:08;26.63;;;18.70;;
20170;SDS011;10245;51.344;6.620;2023-04-09T07:26:32;29.50;;;19.77;;
20170;SDS011;10245;51.344;6.620;2023-04-09T07:28:55;25.05;;;17.60;;
20170;SDS011;10245;51.344;6.620;2023-04-09T07:31:19;25.27;;;17.70;;
20170;SDS011;10245;51.344;6.620;2023-04-09T07:33:42;27.60;;;17.98;;
20170;SDS011;10245;51.344;6.620;2023-04-09T07:36:06;25.55;;;17.88;;
20170;SDS011;10245;51.344;6.620;2023-04-09T07:38:31;29.85;;;19.58;;
20170;SDS011;10245;51.344;6.620;2023-04-09T07:40:55;24.92;;;17.90;;
20170;SDS011;10245;51.344;6.620;2023-04-09T07:43:18;26.77;;;17.58;;
20170;SDS011;10245;51.344;6.620;2023-04-09T07:45:43;25.08;;;16.65;;
20170;SDS011;10245;51.344;6.620;2023-04-09T07:48:06;22.80;;;17.00;;
20170;SDS011;10245;51.344;6.620;2023-04-09T07:50:30;22.17;;;15.20;;
20170;SDS011;10245;51.344;6.620;2023-04-09T07:52:54;23.30;;;16.40;;
20170;SDS011;10245;51.344;6.620;2023-04-09T07:55:18;24.15;;;15.98;;
20170;SDS011;10245;51.344;6.620;2023-04-09T07:57:42;23.70;;;15.88;;
20170;SDS011;10245;51.344;6.620;2023-04-09T08:00:06;22.15;;;15.30;;
20170;SDS011;10245;51.344;6.620;2023-04-09T08:02:33;21.45;;;14.75;;
20170;SDS011;10245;51.344;6.620;2023-04-09T08:04:56;22.00;;;15.57;;
20170;SDS011;10245;51.344;6.620;2023-04-09T08:07:20;22.10;;;15.02;;
20170;SDS011;10245;51.344;6.620;2023-04-09T08:09:44;21.40;;;14.98;;
20170;SDS011;10245;51.344;6.620;2023-04-09T08:12:08;20.27;;;14.68;;
20170;SDS011;10245;51.344;6.620;2023-04-09T08:14:32;20.25;;;14.65;;
20170;SDS011;10245;51.344;6.620;2023-04-09T08:16:56;16.88;;;12.63;;
20170;SDS011;10245;51.344;6.620;2023-04-09T08:19:19;17.10;;;12.38;;
20170;SDS011;10245;51.344;6.620;2023-04-09T08:21:43;16.95;;;12.50;;
20170;SDS011;10245;51.344;6.620;2023-04-09T08:24:09;16.95;;;11.73;;
20170;SDS011;10245;51.344;6.620;2023-04-09T08:26:33;15.07;;;11.27;;
20170;SDS011;10245;51.344;6.620;2023-04-09T08:28:57;17.35;;;11.32;;
20170;SDS011;10245;51.344;6.620;2023-04-09T08:31:21;16.02;;;11.43;;
20170;SDS011;10245;51.344;6.620;2023-04-09T08:33:44;16.35;;;11.07;;
20170;SDS011;10245;51.344;6.620;2023-04-09T08:36:08;13.43;;;10.13;;
20170;SDS011;10245;51.344;6.620;2023-04-09T08:38:32;15.25;;;11.20;;
20170;SDS011;10245;51.344;6.620;2023-04-09T08:40:55;14.75;;;10.60;;
20170;SDS011;10245;51.344;6.620;2023-04-09T08:43:18;14.73;;;10.75;;
20170;SDS011;10245;51.344;6.620;2023-04-09T08:46:08;14.93;;;11.10;;
20170;SDS011;10245;51.344;6.620;2023-04-09T08:48:33;14.55;;;9.13;;
20170;SDS011;10245;51.344;6.620;2023-04-09T08:50:56;12.77;;;9.88;;
20170;SDS011;10245;51.344;6.620;2023-04-09T08:53:19;12.80;;;9.35;;
20170;SDS011;10245;51.344;6.620;2023-04-09T08:55:43;13.00;;;8.82;;
20170;SDS011;10245;51.344;6.620;2023-04-09T08:58:07;12.63;;;9.65;;
20170;SDS011;10245;51.344;6.620;2023-04-09T09:00:30;13.13;;;9.45;;
20170;SDS011;10245;51.344;6.620;2023-04-09T09:03:02;13.52;;;8.75;;
20170;SDS011;10245;51.344;6.620;2023-04-09T09:05:35;10.77;;;8.65;;
20170;SDS011;10245;51.344;6.620;2023-04-09T09:08:01;12.45;;;8.88;;
20170;SDS011;10245;51.344;6.620;2023-04-09T09:10:28;12.40;;;9.30;;
20170;SDS011;10245;51.344;6.620;2023-04-09T09:13:00;13.02;;;9.27;;
20170;SDS011;10245;51.344;6.620;2023-04-09T09:15:24;13.07;;;9.63;;
20170;SDS011;10245;51.344;6.620;2023-04-09T09:17:51;13.98;;;10.10;;
20170;SDS011;10245;51.344;6.620;2023-04-09T09:20:19;15.18;;;10.27;;
20170;SDS011;10245;51.344;6.620;2023-04-09T09:22:50;13.52;;;10.02;;
20170;SDS011;10245;51.344;6.620;2023-04-09T09:25:16;14.98;;;10.40;;
20170;SDS011;10245;51.344;6.620;2023-04-09T09:27:43;14.70;;;11.13;;
20170;SDS011;10245;51.344;6.620;2023-04-09T09:30:07;14.05;;;10.32;;
20170;SDS011;10245;51.344;6.620;2023-04-09T09:32:32;15.02;;;10.35;;
20170;SDS011;10245;51.344;6.620;2023-04-09T09:35:02;12.38;;;9.73;;
20170;SDS011;10245;51.344;6.620;2023-04-09T09:37:29;13.32;;;10.30;;
20170;SDS011;10245;51.344;6.620;2023-04-09T09:39:53;11.95;;;8.43;;
20170;SDS011;10245;51.344;6.620;2023-04-09T09:42:16;11.23;;;8.10;;
20170;SDS011;10245;51.344;6.620;2023-04-09T09:44:40;10.88;;;8.57;;
20170;SDS011;10245;51.344;6.620;2023-04-09T09:47:03;11.57;;;8.23;;
20170;SDS011;10245;51.344;6.620;2023-04-09T09:49:27;9.55;;;7.45;;
20170;SDS011;10245;51.344;6.620;2023-04-09T09:51:50;10.57;;;7.05;;
20170;SDS011;10245;51.344;6.620;2023-04-09T09:54:20;9.60;;;6.82;;
20170;SDS011;10245;51.344;6.620;2023-04-09T09:56:47;7.90;;;6.00;;
20170;SDS011;10245;51.344;6.620;2023-04-09T09:59:18;6.53;;;5.40;;
20170;SDS011;10245;51.344;6.620;2023-04-09T10:01:43;7.97;;;5.40;;
20170;SDS011;10245;51.344;6.620;2023-04-09T10:04:08;7.03;;;5.70;;
20170;SDS011;10245;51.344;6.620;2023-04-09T10:06:36;7.00;;;5.85;;
20170;SDS011;10245;51.344;6.620;2023-04-09T10:09:03;9.60;;;6.00;;
20170;SDS011;10245;51.344;6.620;2023-04-09T10:11:29;8.23;;;6.50;;
20170;SDS011;10245;51.344;6.620;2023-04-09T10:13:55;7.68;;;6.32;;
20170;SDS011;10245;51.344;6.620;2023-04-09T10:16:20;7.68;;;6.22;;
20170;SDS011;10245;51.344;6.620;2023-04-09T10:18:44;7.70;;;6.40;;
20170;SDS011;10245;51.344;6.620;2023-04-09T10:21:08;8.90;;;6.80;;
20170;SDS011;10245;51.344;6.620;2023-04-09T10:23:42;8.63;;;7.07;;
20170;SDS011;10245;51.344;6.620;2023-04-09T10:26:11;9.20;;;7.32;;
20170;SDS011;10245;51.344;6.620;2023-04-09T10:28:35;7.72;;;6.82;;
20170;SDS011;10245;51.344;6.620;2023-04-09T10:30:59;7.70;;;6.07;;
20170;SDS011;10245;51.344;6.620;2023-04-09T10:33:23;7.75;;;5.93;;
20170;SDS011;10245;51.344;6.620;2023-04-09T10:35:49;6.88;;;5.90;;
20170;SDS011;10245;51.344;6.620;2023-04-09T10:38:13;8.35;;;6.75;;
20170;SDS011;10245;51.344;6.620;2023-04-09T10:40:39;8.15;;;6.50;;
20170;SDS011;10245;51.344;6.620;2023-04-09T10:43:11;8.65;;;7.47;;
20170;SDS011;10245;51.344;6.620;2023-04-09T10:45:40;11.43;;;7.78;;
20170;SDS011;10245;51.344;6.620;2023-04-09T10:48:04;8.95;;;6.72;;
20170;SDS011;10245;51.344;6.620;2023-04-09T10:50:28;8.60;;;6.80;;
20170;SDS011;10245;51.344;6.620;2023-04-09T10:52:56;7.95;;;6.78;;
20170;SDS011;10245;51.344;6.620;2023-04-09T10:55:35;8.93;;;6.88;;
20170;SDS011;10245;51.344;6.620;2023-04-09T10:58:00;10.32;;;7.72;;
20170;SDS011;10245;51.344;6.620;2023-04-09T11:00:25;9.10;;;6.97;;
20170;SDS011;10245;51.344;6.620;2023-04-09T11:03:05;8.98;;;7.53;;
20170;SDS011;10245;51.344;6.620;2023-04-09T11:05:42;9.55;;;7.63;;
20170;SDS011;10245;51.344;6.620;2023-04-09T11:08:10;9.30;;;7.43;;
20170;SDS011;10245;51.344;6.620;2023-04-09T11:10:34;10.55;;;7.88;;
20170;SDS011;10245;51.344;6.620;2023-04-09T11:12:59;9.40;;;7.45;;
20170;SDS011;10245;51.344;6.620;2023-04-09T11:15:23;11.15;;;7.70;;
20170;SDS011;10245;51.344;6.620;2023-04-09T11:17:46;8.27;;;7.35;;
20170;SDS011;10245;51.344;6.620;2023-04-09T11:20:12;9.25;;;7.40;;
20170;SDS011;10245;51.344;6.620;2023-04-09T11:22:38;7.82;;;7.00;;
20170;SDS011;10245;51.344;6.620;2023-04-09T11:25:01;10.93;;;6.82;;
20170;SDS011;10245;51.344;6.620;2023-04-09T11:27:25;8.52;;;6.90;;
20170;SDS011;10245;51.344;6.620;2023-04-09T11:29:53;7.80;;;6.63;;
20170;SDS011;10245;51.344;6.620;2023-04-09T11:32:17;7.65;;;6.30;;
20170;SDS011;10245;51.344;6.620;2023-04-09T11:34:40;7.45;;;6.22;;
20170;SDS011;10245;51.344;6.620;2023-04-09T11:37:05;7.15;;;6.45;;
20170;SDS011;10245;51.344;6.620;2023-04-09T11:39:37;8.15;;;6.78;;
20170;SDS011;10245;51.344;6.620;2023-04-09T11:42:01;9.25;;;6.90;;
20170;SDS011;10245;51.344;6.620;2023-04-09T11:44:24;9.55;;;6.40;;
20170;SDS011;10245;51.344;6.620;2023-04-09T11:46:48;8.30;;;7.03;;
20170;SDS011;10245;51.344;6.620;2023-04-09T11:49:12;8.13;;;6.88;;
20170;SDS011;10245;51.344;6.620;2023-04-09T11:51:35;7.18;;;6.45;;
20170;SDS011;10245;51.344;6.620;2023-04-09T11:54:01;9.82;;;7.70;;
20170;SDS011;10245;51.344;6.620;2023-04-09T11:56:24;8.02;;;7.00;;
20170;SDS011;10245;51.344;6.620;2023-04-09T11:58:51;8.55;;;7.25;;
20170;SDS011;10245;51.344;6.620;2023-04-09T12:01:16;7.70;;;6.90;;
20170;SDS011;10245;51.344;6.620;2023-04-09T12:03:40;8.65;;;6.50;;
20170;SDS011;10245;51.344;6.620;2023-04-09T12:06:04;7.60;;;6.78;;
20170;SDS011;10245;51.344;6.620;2023-04-09T12:08:29;8.73;;;7.30;;
20170;SDS011;10245;51.344;6.620;2023-04-09T12:11:07;8.40;;;6.78;;
20170;SDS011;10245;51.344;6.620;2023-04-09T12:13:31;9.27;;;6.50;;
20170;SDS011;10245;51.344;6.620;2023-04-09T12:15:55;7.75;;;6.88;;
20170;SDS011;10245;51.344;6.620;2023-04-09T12:18:20;7.70;;;6.82;;
20170;SDS011;10245;51.344;6.620;2023-04-09T12:20:45;9.45;;;6.90;;
20170;SDS011;10245;51.344;6.620;2023-04-09T12:23:10;7.57;;;6.78;;
20170;SDS011;10245;51.344;6.620;2023-04-09T12:25:35;7.85;;;6.65;;
20170;SDS011;10245;51.344;6.620;2023-04-09T12:28:01;9.10;;;7.07;;
20170;SDS011;10245;51.344;6.620;2023-04-09T12:30:26;11.40;;;7.40;;
20170;SDS011;10245;51.344;6.620;2023-04-09T12:32:49;7.43;;;5.47;;
20170;SDS011;10245;51.344;6.620;2023-04-09T12:35:14;7.05;;;6.35;;
20170;SDS011;10245;51.344;6.620;2023-04-09T12:37:37;8.40;;;7.32;;
20170;SDS011;10245;51.344;6.620;2023-04-09T12:40:00;8.18;;;6.80;;
20170;SDS011;10245;51.344;6.620;2023-04-09T12:42:24;7.30;;;6.07;;
20170;SDS011;10245;51.344;6.620;2023-04-09T12:44:49;8.95;;;7.10;;
20170;SDS011;10245;51.344;6.620;2023-04-09T12:47:12;9.68;;;6.72;;
20170;SDS011;10245;51.344;6.620;2023-04-09T12:49:36;7.85;;;6.78;;
20170;SDS011;10245;51.344;6.620;2023-04-09T12:52:02;7.25;;;6.22;;
20170;SDS011;10245;51.344;6.620;2023-04-09T12:54:25;7.68;;;6.60;;
20170;SDS011;10245;51.344;6.620;2023-04-09T12:56:49;7.03;;;6.32;;
20170;SDS011;10245;51.344;6.620;2023-04-09T12:59:12;6.97;;;6.15;;
20170;SDS011;10245;51.344;6.620;2023-04-09T13:01:37;9.25;;;6.38;;
20170;SDS011;10245;51.344;6.620;2023-04-09T13:04:03;10.15;;;7.20;;
20170;SDS011;10245;51.344;6.620;2023-04-09T13:06:27;9.00;;;7.43;;
20170;SDS011;10245;51.344;6.620;2023-04-09T13:08:50;9.98;;;8.13;;
20170;SDS011;10245;51.344;6.620;2023-04-09T13:11:15;7.68;;;6.78;;
20170;SDS011;10245;51.344;6.620;2023-04-09T13:13:38;9.80;;;7.65;;
20170;SDS011;10245;51.344;6.620;2023-04-09T13:16:09;8.95;;;7.93;;
20170;SDS011;10245;51.344;6.620;2023-04-09T13:18:34;9.15;;;6.80;;
20170;SDS011;10245;51.344;6.620;2023-04-09T13:20:57;8.38;;;6.82;;
20170;SDS011;10245;51.344;6.620;2023-04-09T13:23:21;7.45;;;6.53;;
20170;SDS011;10245;51.344;6.620;2023-04-09T13:25:46;7.57;;;6.47;;
20170;SDS011;10245;51.344;6.620;2023-04-09T13:28:11;9.40;;;7.10;;
20170;SDS011;10245;51.344;6.620;2023-04-09T13:30:34;7.65;;;6.53;;
20170;SDS011;10245;51.344;6.620;2023-04-09T13:32:57;8.48;;;7.28;;
20170;SDS011;10245;51.344;6.620;2023-04-09T13:35:22;9.15;;;7.43;;
20170;SDS011;10245;51.344;6.620;2023-04-09T13:37:45;8.27;;;6.95;;
20170;SDS011;10245;51.344;6.620;2023-04-09T13:40:09;7.13;;;6.43;;
20170;SDS011;10245;51.344;6.620;2023-04-09T13:42:33;8.55;;;6.95;;
20170;SDS011;10245;51.344;6.620;2023-04-09T13:44:57;7.78;;;6.78;;
20170;SDS011;10245;51.344;6.620;2023-04-09T13:47:21;7.65;;;6.85;;
20170;SDS011;10245;51.344;6.620;2023-04-09T13:49:44;7.55;;;6.85;;
20170;SDS011;10245;51.344;6.620;2023-04-09T13:52:09;8.20;;;7.30;;
20170;SDS011;10245;51.344;6.620;2023-04-09T13:54:33;7.88;;;7.07;;
20170;SDS011;10245;51.344;6.620;2023-04-09T13:56:56;8.82;;;6.97;;
20170;SDS011;10245;51.344;6.620;2023-04-09T13:59:20;7.97;;;6.82;;
20170;SDS011;10245;51.344;6.620;2023-04-09T14:01:44;9.43;;;7.32;;
20170;SDS011;10245;51.344;6.620;2023-04-09T14:04:07;8.38;;;7.00;;
20170;SDS011;10245;51.344;6.620;2023-04-09T14:06:31;7.53;;;6.45;;
20170;SDS011;10245;51.344;6.620;2023-04-09T14:08:56;7.43;;;6.32;;
20170;SDS011;10245;51.344;6.620;2023-04-09T14:11:19;8.63;;;7.20;;
20170;SDS011;10245;51.344;6.620;2023-04-09T14:13:45;8.18;;;7.32;;
20170;SDS011;10245;51.344;6.620;2023-04-09T14:16:08;8.10;;;6.72;;
20170;SDS011;10245;51.344;6.620;2023-04-09T14:18:32;7.60;;;6.80;;
20170;SDS011;10245;51.344;6.620;2023-04-09T14:20:55;6.85;;;6.05;;